createdAt,value
2023-05-01T00:01:59.652Z,13.90
2023-05-01T00:04:26.338Z,13.90
2023-05-01T00:06:53.515Z,13.90
2023-05-01T00:09:20.526Z,13.90
2023-05-01T00:11:47.236Z,13.90
2023-05-01T00:14:13.864Z,13.80
2023-05-01T00:16:40.901Z,13.90
2023-05-01T00:19:08.182Z,13.90
2023-05-01T00:21:34.828Z,13.90
2023-05-01T00:24:01.437Z,13.90
2023-05-01T00:26:31.109Z,13.90
2023-05-01T00:28:58.336Z,13.90
2023-05-01T00:31:25.998Z,13.90
2023-05-01T00:33:53.144Z,13.90
2023-05-01T00:36:20.183Z,13.90
2023-05-01T00:38:46.856Z,13.90
2023-05-01T00:41:13.595Z,13.90
2023-05-01T00:43:40.191Z,13.90
2023-05-01T00:46:08.554Z,13.90
2023-05-01T00:48:36.114Z,13.90
2023-05-01T00:51:06.099Z,13.80
2023-05-01T00:53:34.111Z,13.90
2023-05-01T00:56:01.389Z,13.90
2023-05-01T00:58:29.214Z,13.90
2023-05-01T01:00:56.820Z,13.90
2023-05-01T01:03:23.525Z,13.90
2023-05-01T01:06:09.707Z,13.90
2023-05-01T01:09:01.729Z,13.90
2023-05-01T01:11:39.602Z,13.90
2023-05-01T01:14:14.148Z,13.80
2023-05-01T01:16:51.182Z,13.80
2023-05-01T01:19:27.020Z,13.80
2023-05-01T01:21:58.805Z,13.80
2023-05-01T01:24:55.253Z,13.80
2023-05-01T01:27:59.404Z,13.90
2023-05-01T01:30:49.869Z,13.80
2023-05-01T01:33:41.522Z,13.90
2023-05-01T01:36:15.324Z,13.80
2023-05-01T01:38:51.329Z,13.80
2023-05-01T01:41:24.098Z,13.80
2023-05-01T01:44:01.239Z,13.80
2023-05-01T01:46:28.649Z,13.80
2023-05-01T01:48:57.406Z,13.80
2023-05-01T01:51:26.908Z,13.80
2023-05-01T01:53:56.885Z,13.80
2023-05-01T01:56:27.889Z,13.80
2023-05-01T01:58:56.019Z,13.80
2023-05-01T02:01:25.345Z,13.80
2023-05-01T02:03:53.468Z,13.80
2023-05-01T02:06:21.927Z,13.80
2023-05-01T02:08:49.885Z,13.80
2023-05-01T02:11:19.350Z,13.80
2023-05-01T02:13:47.496Z,13.80
2023-05-01T02:16:16.204Z,13.80
2023-05-01T02:18:46.208Z,13.80
2023-05-01T02:21:14.589Z,13.80
2023-05-01T02:23:41.872Z,13.80
2023-05-01T02:26:16.908Z,13.80
2023-05-01T02:28:44.093Z,13.80
2023-05-01T02:31:11.519Z,13.70
2023-05-01T02:33:38.181Z,13.70
2023-05-01T02:36:05.386Z,13.70
2023-05-01T02:38:32.650Z,13.70
2023-05-01T02:41:02.278Z,13.70
2023-05-01T02:43:31.517Z,13.70
2023-05-01T02:45:59.724Z,13.70
2023-05-01T02:48:28.430Z,13.70
2023-05-01T02:50:56.713Z,13.70
2023-05-01T02:53:23.621Z,13.70
2023-05-01T02:55:50.984Z,13.70
2023-05-01T02:58:20.866Z,13.70
2023-05-01T03:00:50.095Z,13.70
2023-05-01T03:03:17.370Z,13.70
2023-05-01T03:05:44.422Z,13.70
2023-05-01T03:08:11.773Z,13.60
2023-05-01T03:10:44.491Z,13.60
2023-05-01T03:13:11.930Z,13.60
2023-05-01T03:15:39.242Z,13.60
2023-05-01T03:18:07.030Z,13.60
2023-05-01T03:20:34.049Z,13.60
2023-05-01T03:23:01.046Z,13.60
2023-05-01T03:25:27.649Z,13.60
2023-05-01T03:27:55.184Z,13.60
2023-05-01T03:30:22.152Z,13.60
2023-05-01T03:32:49.062Z,13.60
2023-05-01T03:35:15.896Z,13.60
2023-05-01T03:37:42.709Z,13.60
2023-05-01T03:40:09.740Z,13.60
2023-05-01T03:42:36.379Z,13.60
2023-05-01T03:45:03.103Z,13.50
2023-05-01T03:47:30.254Z,13.50
2023-05-01T03:49:57.611Z,13.50
2023-05-01T03:52:24.529Z,13.50
2023-05-01T03:54:51.249Z,13.50
2023-05-01T03:57:18.077Z,13.50
2023-05-01T03:59:44.780Z,13.50
2023-05-01T04:02:11.574Z,13.50
2023-05-01T04:04:38.417Z,13.50
2023-05-01T04:07:05.603Z,13.40
2023-05-01T04:09:32.263Z,13.40
2023-05-01T04:11:59.075Z,13.40
2023-05-01T04:14:25.802Z,13.40
2023-05-01T04:16:52.585Z,13.40
2023-05-01T04:19:19.231Z,13.40
2023-05-01T04:21:46.304Z,13.40
2023-05-01T04:24:13.307Z,13.40
2023-05-01T04:26:40.009Z,13.40
2023-05-01T04:29:06.698Z,13.30
2023-05-01T04:31:33.427Z,13.40
2023-05-01T04:34:00.488Z,13.40
2023-05-01T04:36:27.395Z,13.40
2023-05-01T04:38:54.100Z,13.40
2023-05-01T04:41:21.477Z,13.30
2023-05-01T04:43:48.163Z,13.30
2023-05-01T04:46:14.882Z,13.30
2023-05-01T04:48:41.529Z,13.30
2023-05-01T04:51:08.611Z,13.30
2023-05-01T04:53:35.430Z,13.30
2023-05-01T04:56:02.267Z,13.30
2023-05-01T04:58:29.094Z,13.30
2023-05-01T05:00:55.732Z,13.20
2023-05-01T05:03:22.494Z,13.20
2023-05-01T05:05:49.355Z,13.20
2023-05-01T05:08:16.050Z,13.20
2023-05-01T05:10:42.635Z,13.30
2023-05-01T05:13:10.082Z,13.20
2023-05-01T05:15:36.680Z,13.20
2023-05-01T05:18:03.844Z,13.20
2023-05-01T05:20:30.741Z,13.20
2023-05-01T05:22:57.522Z,13.20
2023-05-01T05:25:24.719Z,13.20
2023-05-01T05:27:51.760Z,13.20
2023-05-01T05:30:18.668Z,13.20
2023-05-01T05:32:47.247Z,13.20
2023-05-01T05:35:14.166Z,13.20
2023-05-01T05:37:41.063Z,13.20
2023-05-01T05:40:08.460Z,13.20
2023-05-01T05:42:35.107Z,13.20
2023-05-01T05:45:01.929Z,13.20
2023-05-01T05:47:28.516Z,13.20
2023-05-01T05:49:55.928Z,13.30
2023-05-01T05:52:22.702Z,13.30
2023-05-01T05:54:49.399Z,13.30
2023-05-01T05:57:16.110Z,13.30
2023-05-01T05:59:44.237Z,13.30
2023-05-01T06:02:11.164Z,13.30
2023-05-01T06:04:37.848Z,13.40
2023-05-01T06:07:06.282Z,13.40
2023-05-01T06:09:33.421Z,13.40
2023-05-01T06:12:00.081Z,13.50
2023-05-01T06:14:27.147Z,13.50
2023-05-01T06:16:53.957Z,13.50
2023-05-01T06:19:20.793Z,13.60
2023-05-01T06:21:47.412Z,13.60
2023-05-01T06:24:14.047Z,13.70
2023-05-01T06:26:40.771Z,13.70
2023-05-01T06:29:07.430Z,13.70
2023-05-01T06:31:34.134Z,13.70
2023-05-01T06:34:00.727Z,13.80
2023-05-01T06:36:27.853Z,13.80
2023-05-01T06:38:54.540Z,13.80
2023-05-01T06:41:22.104Z,13.90
2023-05-01T06:43:48.788Z,13.90
2023-05-01T06:46:15.497Z,13.90
2023-05-01T06:48:42.097Z,14.00
2023-05-01T06:51:08.797Z,14.10
2023-05-01T06:53:36.756Z,14.10
2023-05-01T06:56:03.577Z,14.10
2023-05-01T06:58:30.249Z,14.10
2023-05-01T07:00:57.035Z,14.10
2023-05-01T07:03:23.780Z,14.20
2023-05-01T07:05:50.389Z,14.20
2023-05-01T07:08:17.237Z,14.20
2023-05-01T07:10:43.861Z,14.30
2023-05-01T07:13:10.587Z,14.30
2023-05-01T07:15:37.429Z,14.40
2023-05-01T07:18:06.218Z,14.40
2023-05-01T07:20:33.288Z,14.40
2023-05-01T07:23:00.204Z,14.50
2023-05-01T07:25:26.842Z,14.60
2023-05-01T07:27:54.240Z,14.60
2023-05-01T07:30:21.019Z,14.60
2023-05-01T07:32:48.029Z,14.70
2023-05-01T07:35:14.826Z,14.70
2023-05-01T07:37:41.495Z,14.80
2023-05-01T07:40:08.478Z,14.90
2023-05-01T07:42:35.114Z,14.90
2023-05-01T07:45:01.954Z,15.00
2023-05-01T07:47:28.820Z,15.10
2023-05-01T07:49:55.870Z,15.20
2023-05-01T07:52:22.936Z,15.20
2023-05-01T07:54:50.951Z,15.30
2023-05-01T07:57:17.726Z,15.40
2023-05-01T07:59:44.501Z,15.40
2023-05-01T08:02:11.648Z,15.60
2023-05-01T08:04:38.488Z,15.60
2023-05-01T08:07:05.285Z,15.70
2023-05-01T08:09:32.117Z,15.80
2023-05-01T08:11:58.753Z,15.90
2023-05-01T08:14:25.431Z,16.00
2023-05-01T08:16:55.349Z,16.10
2023-05-01T08:19:23.147Z,16.20
2023-05-01T08:21:50.066Z,16.20
2023-05-01T08:24:16.691Z,16.30
2023-05-01T08:26:43.434Z,16.40
2023-05-01T08:29:10.298Z,16.50
2023-05-01T08:31:37.986Z,16.60
2023-05-01T08:34:04.994Z,16.70
2023-05-01T08:36:32.579Z,16.80
2023-05-01T08:38:59.339Z,16.90
2023-05-01T08:41:28.597Z,17.00
2023-05-01T08:43:58.716Z,17.10
2023-05-01T08:46:44.959Z,17.20
2023-05-01T08:49:15.626Z,17.20
2023-05-01T08:51:46.326Z,17.30
2023-05-01T08:54:15.159Z,17.40
2023-05-01T08:56:44.739Z,17.40
2023-05-01T08:59:13.742Z,17.50
2023-05-01T09:01:41.898Z,17.60
2023-05-01T09:04:09.805Z,17.60
2023-05-01T09:06:36.706Z,17.70
2023-05-01T09:09:03.449Z,17.70
2023-05-01T09:11:30.334Z,17.70
2023-05-01T09:13:57.275Z,17.80
2023-05-01T09:16:24.196Z,17.80
2023-05-01T09:18:51.321Z,17.80
2023-05-01T09:21:18.541Z,17.90
2023-05-01T09:23:45.316Z,17.90
2023-05-01T09:26:12.302Z,18.00
2023-05-01T09:28:47.222Z,18.10
2023-05-01T09:31:29.002Z,18.10
2023-05-01T09:33:57.219Z,18.20
2023-05-01T09:36:25.588Z,18.30
2023-05-01T09:38:52.538Z,18.40
2023-05-01T09:41:21.031Z,18.50
2023-05-01T09:43:56.021Z,18.60
2023-05-01T09:46:27.687Z,18.70
2023-05-01T09:48:58.885Z,18.70
2023-05-01T09:51:30.405Z,18.90
2023-05-01T09:54:04.895Z,19.00
2023-05-01T09:56:33.932Z,19.10
2023-05-01T09:59:16.353Z,19.20
2023-05-01T10:01:46.017Z,19.30
2023-05-01T10:04:13.304Z,19.40
2023-05-01T10:06:40.521Z,19.60
2023-05-01T10:09:16.371Z,19.70
2023-05-01T10:11:52.258Z,20.00
2023-05-01T10:14:20.299Z,20.20
2023-05-01T10:16:47.068Z,20.40
2023-05-01T10:19:17.382Z,20.60
2023-05-01T10:21:44.119Z,20.80
2023-05-01T10:24:11.144Z,20.90
2023-05-01T10:26:38.106Z,21.10
2023-05-01T10:29:04.882Z,21.10
2023-05-01T10:31:33.043Z,21.10
2023-05-01T10:34:01.874Z,21.20
2023-05-01T10:36:37.328Z,21.20
2023-05-01T10:39:04.194Z,21.20
2023-05-01T10:41:58.772Z,21.20
2023-05-01T10:44:26.940Z,21.10
2023-05-01T10:46:54.452Z,21.10
2023-05-01T10:49:22.121Z,21.10
2023-05-01T10:51:58.769Z,21.10
2023-05-01T10:54:26.989Z,21.00
2023-05-01T10:56:55.909Z,20.90
2023-05-01T10:59:22.708Z,20.80
2023-05-01T11:01:51.968Z,20.70
2023-05-01T11:04:27.496Z,20.60
2023-05-01T11:07:07.803Z,20.50
2023-05-01T11:09:59.626Z,20.40
2023-05-01T11:12:45.731Z,20.20
2023-05-01T11:15:13.525Z,20.00
2023-05-01T11:17:40.691Z,19.90
2023-05-01T11:20:08.839Z,19.70
2023-05-01T11:22:37.093Z,19.60
2023-05-01T11:25:04.967Z,19.50
2023-05-01T11:27:32.184Z,19.40
2023-05-01T11:29:59.748Z,19.20
2023-05-01T11:32:31.998Z,19.20
2023-05-01T11:34:58.961Z,19.10
2023-05-01T11:37:45.040Z,19.00
2023-05-01T11:40:26.201Z,18.90
2023-05-01T11:43:04.536Z,18.80
2023-05-01T11:45:31.957Z,18.70
2023-05-01T11:48:00.552Z,18.60
2023-05-01T11:50:37.186Z,18.60
2023-05-01T11:53:11.833Z,18.50
2023-05-01T11:55:38.765Z,18.40
2023-05-01T11:58:06.157Z,18.40
2023-05-01T12:00:36.631Z,18.30
2023-05-01T12:03:06.447Z,18.20
2023-05-01T12:05:37.931Z,18.20
2023-05-01T12:08:19.013Z,18.10
2023-05-01T12:10:52.161Z,18.10
2023-05-01T12:13:19.819Z,18.10
2023-05-01T12:15:48.390Z,18.10
2023-05-01T12:18:16.978Z,18.10
2023-05-01T12:20:48.712Z,18.10
2023-05-01T12:23:16.846Z,18.10
2023-05-01T12:25:44.749Z,18.10
2023-05-01T12:28:16.864Z,18.10
2023-05-01T12:30:45.846Z,18.20
2023-05-01T12:33:14.704Z,18.20
2023-05-01T12:35:45.190Z,18.30
2023-05-01T12:38:20.607Z,18.40
2023-05-01T12:40:58.276Z,18.50
2023-05-01T12:43:33.386Z,18.60
2023-05-01T12:46:01.382Z,18.70
2023-05-01T12:48:28.993Z,18.90
2023-05-01T12:50:56.026Z,18.90
2023-05-01T12:53:24.688Z,19.10
2023-05-01T12:55:56.894Z,19.20
2023-05-01T12:58:24.844Z,19.40
2023-05-01T13:00:53.651Z,19.60
2023-05-01T13:03:25.750Z,19.70
2023-05-01T13:06:01.102Z,19.90
2023-05-01T13:08:29.180Z,20.10
2023-05-01T13:10:57.934Z,20.40
2023-05-01T13:13:26.176Z,20.70
2023-05-01T13:15:53.193Z,21.10
2023-05-01T13:18:19.957Z,21.40
2023-05-01T13:20:46.854Z,21.70
2023-05-01T13:23:13.592Z,22.00
2023-05-01T13:25:40.488Z,22.40
2023-05-01T13:28:07.731Z,22.70
2023-05-01T13:30:34.759Z,23.10
2023-05-01T13:33:01.945Z,23.40
2023-05-01T13:35:28.688Z,23.60
2023-05-01T13:37:55.432Z,23.90
2023-05-01T13:40:25.008Z,24.10
2023-05-01T13:42:52.900Z,24.20
2023-05-01T13:45:21.142Z,24.50
2023-05-01T13:47:50.637Z,24.60
2023-05-01T13:50:18.007Z,24.80
2023-05-01T13:52:45.313Z,25.00
2023-05-01T13:55:12.765Z,25.20
2023-05-01T13:57:41.545Z,25.40
2023-05-01T14:00:10.720Z,25.60
2023-05-01T14:02:44.045Z,25.70
2023-05-01T14:05:11.273Z,25.90
2023-05-01T14:07:49.980Z,26.00
2023-05-01T14:10:16.616Z,26.10
2023-05-01T14:12:43.236Z,26.10
2023-05-01T14:15:12.181Z,26.10
2023-05-01T14:17:39.048Z,26.10
2023-05-01T14:20:06.687Z,26.00
2023-05-01T14:22:43.639Z,26.00
2023-05-01T14:25:31.519Z,25.90
2023-05-01T14:28:00.848Z,25.80
2023-05-01T14:30:37.250Z,25.60
2023-05-01T14:33:14.038Z,25.50
2023-05-01T14:35:51.834Z,25.40
2023-05-01T14:38:20.119Z,25.30
2023-05-01T14:40:47.989Z,25.10
2023-05-01T14:43:18.686Z,25.00
2023-05-01T14:45:46.554Z,24.90
2023-05-01T14:48:24.274Z,24.70
2023-05-01T14:50:51.961Z,24.60
2023-05-01T14:53:18.871Z,24.40
2023-05-01T14:55:45.656Z,24.20
2023-05-01T14:58:12.376Z,24.10
2023-05-01T15:00:39.085Z,23.90
2023-05-01T15:03:06.014Z,23.80
2023-05-01T15:05:33.560Z,23.70
2023-05-01T15:08:04.594Z,23.60
2023-05-01T15:10:32.365Z,23.50
2023-05-01T15:12:58.985Z,23.40
2023-05-01T15:15:26.778Z,23.30
2023-05-01T15:17:53.453Z,23.20
2023-05-01T15:20:20.088Z,23.10
2023-05-01T15:22:46.752Z,23.00
2023-05-01T15:25:14.653Z,22.90
2023-05-01T15:27:41.267Z,22.80
2023-05-01T15:30:10.090Z,22.70
2023-05-01T15:32:37.931Z,22.60
2023-05-01T15:35:05.038Z,22.60
2023-05-01T15:37:31.736Z,22.50
2023-05-01T15:39:59.610Z,22.50
2023-05-01T15:42:26.426Z,22.40
2023-05-01T15:44:53.057Z,22.40
2023-05-01T15:47:19.668Z,22.30
2023-05-01T15:49:46.368Z,22.30
2023-05-01T15:52:13.370Z,22.20
2023-05-01T15:54:40.094Z,22.20
2023-05-01T15:57:08.608Z,22.20
2023-05-01T15:59:35.254Z,22.20
2023-05-01T16:02:02.083Z,22.10
2023-05-01T16:04:28.723Z,22.10
2023-05-01T16:06:55.414Z,22.00
2023-05-01T16:09:29.210Z,22.00
2023-05-01T16:11:56.116Z,21.90
2023-05-01T16:14:22.828Z,21.80
2023-05-01T16:16:49.552Z,21.80
2023-05-01T16:19:16.732Z,21.70
2023-05-01T16:21:43.479Z,21.70
2023-05-01T16:24:10.938Z,21.60
2023-05-01T16:26:39.860Z,21.50
2023-05-01T16:29:07.408Z,21.40
2023-05-01T16:31:47.006Z,21.40
2023-05-01T16:34:15.229Z,21.30
2023-05-01T16:36:42.694Z,21.20
2023-05-01T16:39:15.427Z,21.10
2023-05-01T16:41:47.391Z,21.10
2023-05-01T16:44:16.278Z,20.90
2023-05-01T16:46:46.998Z,20.90
2023-05-01T16:49:14.285Z,20.80
2023-05-01T16:51:42.470Z,20.70
2023-05-01T16:54:09.205Z,20.60
2023-05-01T16:56:35.937Z,20.50
2023-05-01T16:59:02.586Z,20.40
2023-05-01T17:01:29.337Z,20.30
2023-05-01T17:03:56.245Z,20.20
2023-05-01T17:06:23.062Z,20.20
2023-05-01T17:08:50.137Z,20.10
2023-05-01T17:11:17.958Z,20.00
2023-05-01T17:13:44.613Z,19.90
2023-05-01T17:16:11.315Z,19.80
2023-05-01T17:18:37.920Z,19.70
2023-05-01T17:21:05.043Z,19.70
2023-05-01T17:23:31.674Z,19.60
2023-05-01T17:25:58.426Z,19.60
2023-05-01T17:28:25.179Z,19.40
2023-05-01T17:30:52.032Z,19.40
2023-05-01T17:33:18.760Z,19.30
2023-05-01T17:35:45.611Z,19.20
2023-05-01T17:38:12.302Z,19.20
2023-05-01T17:40:38.930Z,19.10
2023-05-01T17:43:05.732Z,19.00
2023-05-01T17:45:32.447Z,18.90
2023-05-01T17:47:59.171Z,18.90
2023-05-01T17:50:25.854Z,18.80
2023-05-01T17:53:11.875Z,18.70
2023-05-01T17:55:39.030Z,18.60
2023-05-01T17:58:06.935Z,18.60
2023-05-01T18:00:33.756Z,18.50
2023-05-01T18:03:00.806Z,18.40
2023-05-01T18:05:27.640Z,18.30
2023-05-01T18:07:55.943Z,18.30
2023-05-01T18:10:22.796Z,18.20
2023-05-01T18:12:49.831Z,18.20
2023-05-01T18:15:22.218Z,18.10
2023-05-01T18:17:49.887Z,18.00
2023-05-01T18:20:16.678Z,18.00
2023-05-01T18:22:43.415Z,17.90
2023-05-01T18:25:10.288Z,17.80
2023-05-01T18:27:41.124Z,17.70
2023-05-01T18:30:09.938Z,17.70
2023-05-01T18:32:47.385Z,17.70
2023-05-01T18:35:16.023Z,17.60
2023-05-01T18:37:51.771Z,17.50
2023-05-01T18:40:18.509Z,17.40
2023-05-01T18:42:45.332Z,17.30
2023-05-01T18:45:12.034Z,17.30
2023-05-01T18:47:39.119Z,17.20
2023-05-01T18:50:06.841Z,17.20
2023-05-01T18:52:33.511Z,17.10
2023-05-01T18:55:00.174Z,17.00
2023-05-01T18:57:31.519Z,16.90
2023-05-01T18:59:58.366Z,16.90
2023-05-01T19:02:25.221Z,16.80
2023-05-01T19:04:57.452Z,16.70
2023-05-01T19:07:26.084Z,16.70
2023-05-01T19:09:52.787Z,16.60
2023-05-01T19:12:19.448Z,16.50
2023-05-01T19:14:46.058Z,16.50
2023-05-01T19:17:12.893Z,16.40
2023-05-01T19:19:39.481Z,16.30
2023-05-01T19:22:07.211Z,16.20
2023-05-01T19:24:33.866Z,16.20
2023-05-01T19:27:01.618Z,16.10
2023-05-01T19:29:28.324Z,16.00
2023-05-01T19:31:55.160Z,16.00
2023-05-01T19:34:21.926Z,15.90
2023-05-01T19:36:48.558Z,15.90
2023-05-01T19:39:15.192Z,15.80
2023-05-01T19:41:41.815Z,15.80
2023-05-01T19:44:08.454Z,15.70
2023-05-01T19:46:35.135Z,15.70
2023-05-01T19:49:01.952Z,15.60
2023-05-01T19:51:28.699Z,15.60
2023-05-01T19:53:55.425Z,15.50
2023-05-01T19:56:23.104Z,15.40
2023-05-01T19:58:49.753Z,15.40
2023-05-01T20:01:16.559Z,15.30
2023-05-01T20:03:43.366Z,15.20
2023-05-01T20:06:10.110Z,15.20
2023-05-01T20:08:36.797Z,15.20
2023-05-01T20:11:03.491Z,15.10
2023-05-01T20:13:30.175Z,15.10
2023-05-01T20:15:56.854Z,15.10
2023-05-01T20:18:23.564Z,15.00
2023-05-01T20:20:50.447Z,15.00
2023-05-01T20:23:19.412Z,14.90
2023-05-01T20:25:51.531Z,14.90
2023-05-01T20:28:19.124Z,14.90
2023-05-01T20:30:47.316Z,14.90
2023-05-01T20:33:15.131Z,14.90
2023-05-01T20:35:41.966Z,14.80
2023-05-01T20:38:08.731Z,14.80
2023-05-01T20:40:37.244Z,14.80
2023-05-01T20:43:03.943Z,14.80
2023-05-01T20:45:30.853Z,14.80
2023-05-01T20:47:58.257Z,14.80
2023-05-01T20:50:25.925Z,14.80
2023-05-01T20:52:54.008Z,14.80
2023-05-01T20:55:20.982Z,14.80
2023-05-01T20:57:47.618Z,14.80
2023-05-01T21:00:14.618Z,14.80
2023-05-01T21:02:42.026Z,14.80
2023-05-01T21:05:10.265Z,14.80
2023-05-01T21:07:40.585Z,14.80
2023-05-01T21:10:09.892Z,14.80
2023-05-01T21:12:37.528Z,14.80
2023-05-01T21:15:05.682Z,14.80
2023-05-01T21:17:34.502Z,14.80
2023-05-01T21:20:01.657Z,14.80
2023-05-01T21:22:28.532Z,14.80
2023-05-01T21:24:57.447Z,14.80
2023-05-01T21:27:26.194Z,14.80
2023-05-01T21:29:58.013Z,14.80
2023-05-01T21:32:32.247Z,14.70
2023-05-01T21:35:00.006Z,14.80
2023-05-01T21:37:27.389Z,14.80
2023-05-01T21:39:54.152Z,14.80
2023-05-01T21:42:20.968Z,14.70
2023-05-01T21:44:47.834Z,14.70
2023-05-01T21:47:15.793Z,14.80
2023-05-01T21:49:42.550Z,14.70
2023-05-01T21:52:09.344Z,14.70
2023-05-01T21:54:36.787Z,14.70
2023-05-01T21:57:07.463Z,14.70
2023-05-01T21:59:38.840Z,14.70
2023-05-01T22:02:09.219Z,14.70
2023-05-01T22:04:37.115Z,14.70
2023-05-01T22:07:04.537Z,14.70
2023-05-01T22:09:32.437Z,14.70
2023-05-01T22:11:59.047Z,14.70
2023-05-01T22:14:33.667Z,14.60
2023-05-01T22:17:10.667Z,14.60
2023-05-01T22:19:37.893Z,14.60
2023-05-01T22:22:04.721Z,14.60
2023-05-01T22:24:31.568Z,14.60
2023-05-01T22:26:58.260Z,14.50
2023-05-01T22:29:24.968Z,14.50
2023-05-01T22:31:51.640Z,14.50
2023-05-01T22:34:18.369Z,14.40
2023-05-01T22:36:45.118Z,14.40
2023-05-01T22:39:12.101Z,14.30
2023-05-01T22:41:38.718Z,14.30
2023-05-01T22:44:06.354Z,14.20
2023-05-01T22:46:33.130Z,14.20
2023-05-01T22:49:03.157Z,14.10
2023-05-01T22:51:30.323Z,14.10
2023-05-01T22:53:56.961Z,14.10
2023-05-01T22:56:26.235Z,14.00
2023-05-01T22:58:52.992Z,14.00
2023-05-01T23:01:19.860Z,13.90
2023-05-01T23:03:46.715Z,13.90
2023-05-01T23:06:13.757Z,13.80
2023-05-01T23:08:40.556Z,13.80
2023-05-01T23:11:10.170Z,13.70
2023-05-01T23:13:37.269Z,13.70
2023-05-01T23:16:04.322Z,13.70
2023-05-01T23:18:33.050Z,13.70
2023-05-01T23:20:59.840Z,13.60
2023-05-01T23:23:29.737Z,13.60
2023-05-01T23:25:56.783Z,13.50
2023-05-01T23:28:24.614Z,13.50
2023-05-01T23:30:57.826Z,13.50
2023-05-01T23:33:25.931Z,13.40
2023-05-01T23:35:52.628Z,13.40
2023-05-01T23:38:19.577Z,13.40
2023-05-01T23:40:46.579Z,13.30
2023-05-01T23:43:13.626Z,13.30
2023-05-01T23:45:40.350Z,13.30
2023-05-01T23:48:07.753Z,13.20
2023-05-01T23:50:34.815Z,13.20
2023-05-01T23:53:10.323Z,13.20
2023-05-01T23:55:38.324Z,13.20
2023-05-01T23:58:05.078Z,13.20
